sensor_id;sensor_type;location;lat;lon;timestamp;pressure;altitude;pressure_sealevel;temperature;humidity
72794;BME280;63436;26.334;50.194;2022-11-09T00:00:35;100930.79;;;29.83;17.03
72794;BME280;63436;26.334;50.194;2022-11-09T00:03:00;100925.36;;;29.28;17.33
72794;BME280;63436;26.334;50.194;2022-11-09T00:05:31;100926.94;;;29.76;15.91
72794;BME280;63436;26.334;50.194;2022-11-09T00:07:52;100926.52;;;30.15;16.02
72794;BME280;63436;26.334;50.194;2022-11-09T00:10:16;100930.53;;;29.50;16.42
72794;BME280;63436;26.334;50.194;2022-11-09T00:12:41;100925.00;;;29.39;16.52
72794;BME280;63436;26.334;50.194;2022-11-09T00:15:07;100930.96;;;29.66;16.63
72794;BME280;63436;26.334;50.194;2022-11-09T00:17:32;100937.02;;;28.57;17.29
72794;BME280;63436;26.334;50.194;2022-11-09T00:19:57;100929.42;;;29.55;16.68
72794;BME280;63436;26.334;50.194;2022-11-09T00:22:23;100931.75;;;29.70;15.89
72794;BME280;63436;26.334;50.194;2022-11-09T00:24:48;100927.56;;;29.82;15.82
72794;BME280;63436;26.334;50.194;2022-11-09T00:27:13;100927.36;;;30.17;16.00
72794;BME280;63436;26.334;50.194;2022-11-09T00:29:43;100925.39;;;29.32;15.88
72794;BME280;63436;26.334;50.194;2022-11-09T00:32:09;100925.54;;;29.82;15.86
72794;BME280;63436;26.334;50.194;2022-11-09T00:34:30;100927.81;;;29.81;15.99
72794;BME280;63436;26.334;50.194;2022-11-09T00:36:55;100927.08;;;30.43;16.14
72794;BME280;63436;26.334;50.194;2022-11-09T00:39:21;100925.10;;;29.48;16.40
72794;BME280;63436;26.334;50.194;2022-11-09T00:41:46;100929.51;;;30.28;15.54
72794;BME280;63436;26.334;50.194;2022-11-09T00:44:11;100930.42;;;30.46;15.76
72794;BME280;63436;26.334;50.194;2022-11-09T00:46:37;100931.77;;;29.72;15.96
72794;BME280;63436;26.334;50.194;2022-11-09T00:49:01;100936.04;;;30.27;16.37
72794;BME280;63436;26.334;50.194;2022-11-09T00:51:27;100936.82;;;29.51;16.75
72794;BME280;63436;26.334;50.194;2022-11-09T00:53:51;100937.88;;;29.85;16.82
72794;BME280;63436;26.334;50.194;2022-11-09T00:56:17;100941.87;;;29.46;16.88
72794;BME280;63436;26.334;50.194;2022-11-09T00:58:42;100942.80;;;30.24;16.80
72794;BME280;63436;26.334;50.194;2022-11-09T01:01:09;100945.66;;;30.82;15.55
72794;BME280;63436;26.334;50.194;2022-11-09T01:03:33;100947.75;;;29.82;16.91
72794;BME280;63436;26.334;50.194;2022-11-09T01:05:59;100949.11;;;30.62;16.61
72794;BME280;63436;26.334;50.194;2022-11-09T01:08:24;100949.61;;;29.81;17.11
72794;BME280;63436;26.334;50.194;2022-11-09T01:10:50;100948.32;;;29.24;16.52
72794;BME280;63436;26.334;50.194;2022-11-09T01:13:23;100952.77;;;30.11;16.22
72794;BME280;63436;26.334;50.194;2022-11-09T01:15:43;100953.72;;;30.45;15.82
72794;BME280;63436;26.334;50.194;2022-11-09T01:18:06;100955.45;;;30.62;15.92
72794;BME280;63436;26.334;50.194;2022-11-09T01:20:31;100956.01;;;30.11;16.60
72794;BME280;63436;26.334;50.194;2022-11-09T01:22:56;100957.83;;;30.01;16.57
72794;BME280;63436;26.334;50.194;2022-11-09T01:25:27;100961.96;;;30.41;16.04
72794;BME280;63436;26.334;50.194;2022-11-09T01:27:48;100962.88;;;29.93;17.00
72794;BME280;63436;26.334;50.194;2022-11-09T01:30:13;100966.81;;;30.35;16.68
72794;BME280;63436;26.334;50.194;2022-11-09T01:32:38;100966.05;;;30.22;16.54
72794;BME280;63436;26.334;50.194;2022-11-09T01:35:04;100968.67;;;29.61;17.12
72794;BME280;63436;26.334;50.194;2022-11-09T01:37:28;100975.55;;;29.89;16.53
72794;BME280;63436;26.334;50.194;2022-11-09T01:39:54;100977.74;;;30.33;15.93
72794;BME280;63436;26.334;50.194;2022-11-09T01:42:23;100978.67;;;29.51;17.09
72794;BME280;63436;26.334;50.194;2022-11-09T01:44:45;100980.12;;;29.22;16.93
72794;BME280;63436;26.334;50.194;2022-11-09T01:47:16;100980.44;;;29.61;16.84
72794;BME280;63436;26.334;50.194;2022-11-09T01:49:40;100985.31;;;29.77;17.05
72794;BME280;63436;26.334;50.194;2022-11-09T01:52:05;100989.05;;;28.96;16.71
72794;BME280;63436;26.334;50.194;2022-11-09T01:54:29;100996.66;;;29.98;16.65
72794;BME280;63436;26.334;50.194;2022-11-09T01:56:55;100996.75;;;29.99;16.95
72794;BME280;63436;26.334;50.194;2022-11-09T01:59:20;100999.28;;;29.54;16.52
72794;BME280;63436;26.334;50.194;2022-11-09T02:01:43;100999.38;;;30.00;16.07
72794;BME280;63436;26.334;50.194;2022-11-09T02:04:11;100999.76;;;30.17;16.57
72794;BME280;63436;26.334;50.194;2022-11-09T02:06:33;101006.05;;;29.80;16.59
72794;BME280;63436;26.334;50.194;2022-11-09T02:09:03;101000.09;;;30.00;16.30
72794;BME280;63436;26.334;50.194;2022-11-09T02:11:26;101005.50;;;29.42;16.28
72794;BME280;63436;26.334;50.194;2022-11-09T02:13:54;101002.91;;;29.79;16.68
72794;BME280;63436;26.334;50.194;2022-11-09T02:16:15;100996.85;;;30.20;16.73
72794;BME280;63436;26.334;50.194;2022-11-09T02:18:43;101013.68;;;30.39;16.72
72794;BME280;63436;26.334;50.194;2022-11-09T02:21:05;101013.53;;;29.80;17.13
72794;BME280;63436;26.334;50.194;2022-11-09T02:23:30;101011.02;;;29.25;17.89
72794;BME280;63436;26.334;50.194;2022-11-09T02:25:57;101012.66;;;29.92;16.99
72794;BME280;63436;26.334;50.194;2022-11-09T02:28:20;101019.10;;;30.12;17.71
72794;BME280;63436;26.334;50.194;2022-11-09T02:30:49;101020.28;;;29.24;18.04
72794;BME280;63436;26.334;50.194;2022-11-09T02:33:11;101021.19;;;29.23;17.84
72794;BME280;63436;26.334;50.194;2022-11-09T02:35:36;101030.13;;;29.78;17.43
72794;BME280;63436;26.334;50.194;2022-11-09T02:38:01;101028.37;;;29.10;17.72
72794;BME280;63436;26.334;50.194;2022-11-09T02:40:30;101033.28;;;29.04;17.82
72794;BME280;63436;26.334;50.194;2022-11-09T02:42:51;101040.92;;;29.06;17.76
72794;BME280;63436;26.334;50.194;2022-11-09T02:45:16;101040.76;;;30.04;17.41
72794;BME280;63436;26.334;50.194;2022-11-09T02:47:42;101040.77;;;29.10;17.69
72794;BME280;63436;26.334;50.194;2022-11-09T02:50:08;101049.57;;;28.67;18.51
72794;BME280;63436;26.334;50.194;2022-11-09T02:52:32;101050.93;;;29.41;17.82
72794;BME280;63436;26.334;50.194;2022-11-09T02:54:57;101051.91;;;28.87;18.32
72794;BME280;63436;26.334;50.194;2022-11-09T02:57:23;101057.84;;;28.80;18.48
72794;BME280;63436;26.334;50.194;2022-11-09T02:59:49;101059.17;;;29.20;17.90
72794;BME280;63436;26.334;50.194;2022-11-09T03:02:15;101059.14;;;28.83;18.61
72794;BME280;63436;26.334;50.194;2022-11-09T03:04:40;101063.28;;;28.63;18.95
72794;BME280;63436;26.334;50.194;2022-11-09T03:07:06;101071.60;;;28.39;19.04
72794;BME280;63436;26.334;50.194;2022-11-09T03:09:31;101076.72;;;28.56;19.34
72794;BME280;63436;26.334;50.194;2022-11-09T03:11:56;101076.54;;;28.63;19.29
72794;BME280;63436;26.334;50.194;2022-11-09T03:14:22;101078.19;;;28.80;18.78
72794;BME280;63436;26.334;50.194;2022-11-09T03:16:46;101083.41;;;28.36;18.73
72794;BME280;63436;26.334;50.194;2022-11-09T03:19:12;101085.98;;;28.67;18.72
72794;BME280;63436;26.334;50.194;2022-11-09T03:21:37;101091.19;;;28.66;18.34
72794;BME280;63436;26.334;50.194;2022-11-09T03:24:03;101093.92;;;28.70;18.55
72794;BME280;63436;26.334;50.194;2022-11-09T03:26:28;101090.46;;;27.78;18.10
72794;BME280;63436;26.334;50.194;2022-11-09T03:28:53;101087.63;;;28.12;17.02
72794;BME280;63436;26.334;50.194;2022-11-09T03:31:18;101095.70;;;28.75;15.53
72794;BME280;63436;26.334;50.194;2022-11-09T03:33:44;101099.25;;;28.85;16.39
72794;BME280;63436;26.334;50.194;2022-11-09T03:36:09;101106.58;;;28.77;16.97
72794;BME280;63436;26.334;50.194;2022-11-09T03:38:34;101106.84;;;28.68;15.87
72794;BME280;63436;26.334;50.194;2022-11-09T03:41:00;101106.89;;;28.55;15.84
72794;BME280;63436;26.334;50.194;2022-11-09T03:43:25;101108.16;;;29.05;13.98
72794;BME280;63436;26.334;50.194;2022-11-09T03:45:50;101106.06;;;28.14;14.35
72794;BME280;63436;26.334;50.194;2022-11-09T03:48:15;101116.96;;;26.83;15.57
72794;BME280;63436;26.334;50.194;2022-11-09T03:50:41;101112.95;;;28.01;15.31
72794;BME280;63436;26.334;50.194;2022-11-09T03:53:08;101114.66;;;29.27;14.00
72794;BME280;63436;26.334;50.194;2022-11-09T03:55:33;101118.95;;;27.83;14.33
72794;BME280;63436;26.334;50.194;2022-11-09T03:57:57;101123.94;;;27.05;14.84
72794;BME280;63436;26.334;50.194;2022-11-09T04:00:24;101124.94;;;28.32;14.30
72794;BME280;63436;26.334;50.194;2022-11-09T04:02:49;101127.23;;;28.44;14.37
72794;BME280;63436;26.334;50.194;2022-11-09T04:05:15;101135.40;;;28.11;14.72
72794;BME280;63436;26.334;50.194;2022-11-09T04:07:40;101137.87;;;28.88;13.85
72794;BME280;63436;26.334;50.194;2022-11-09T04:10:07;101140.74;;;28.70;14.28
72794;BME280;63436;26.334;50.194;2022-11-09T04:12:30;101143.19;;;29.37;13.75
72794;BME280;63436;26.334;50.194;2022-11-09T04:14:55;101146.48;;;28.11;14.59
72794;BME280;63436;26.334;50.194;2022-11-09T04:17:21;101144.80;;;29.19;13.60
72794;BME280;63436;26.334;50.194;2022-11-09T04:19:46;101147.89;;;28.68;14.50
72794;BME280;63436;26.334;50.194;2022-11-09T04:22:12;101146.89;;;28.55;13.94
72794;BME280;63436;26.334;50.194;2022-11-09T04:24:37;101151.84;;;29.69;13.14
72794;BME280;63436;26.334;50.194;2022-11-09T04:27:03;101162.02;;;29.07;14.02
72794;BME280;63436;26.334;50.194;2022-11-09T04:29:28;101169.55;;;28.35;13.96
72794;BME280;63436;26.334;50.194;2022-11-09T04:31:53;101173.37;;;30.02;12.97
72794;BME280;63436;26.334;50.194;2022-11-09T04:34:18;101179.46;;;29.78;13.33
72794;BME280;63436;26.334;50.194;2022-11-09T04:36:43;101190.19;;;30.03;13.16
72794;BME280;63436;26.334;50.194;2022-11-09T04:39:09;101195.62;;;28.57;13.60
72794;BME280;63436;26.334;50.194;2022-11-09T04:41:34;101201.77;;;29.97;13.14
72794;BME280;63436;26.334;50.194;2022-11-09T04:44:00;101208.45;;;29.40;13.88
72794;BME280;63436;26.334;50.194;2022-11-09T04:46:26;101219.25;;;30.09;13.31
72794;BME280;63436;26.334;50.194;2022-11-09T04:48:51;101227.95;;;29.62;13.80
72794;BME280;63436;26.334;50.194;2022-11-09T04:51:17;101233.02;;;30.66;13.73
72794;BME280;63436;26.334;50.194;2022-11-09T04:53:41;101240.16;;;29.01;13.88
72794;BME280;63436;26.334;50.194;2022-11-09T04:56:07;101237.57;;;29.88;14.07
72794;BME280;63436;26.334;50.194;2022-11-09T04:58:32;101245.43;;;28.92;14.56
72794;BME280;63436;26.334;50.194;2022-11-09T05:01:02;101253.01;;;30.97;13.55
72794;BME280;63436;26.334;50.194;2022-11-09T05:03:22;101257.40;;;28.47;15.25
72794;BME280;63436;26.334;50.194;2022-11-09T05:05:47;101261.00;;;29.65;14.05
72794;BME280;63436;26.334;50.194;2022-11-09T05:08:13;101263.55;;;29.37;14.12
72794;BME280;63436;26.334;50.194;2022-11-09T05:10:38;101270.30;;;29.14;15.52
72794;BME280;63436;26.334;50.194;2022-11-09T05:13:05;101277.45;;;28.98;14.87
72794;BME280;63436;26.334;50.194;2022-11-09T05:15:29;101278.37;;;30.30;13.87
72794;BME280;63436;26.334;50.194;2022-11-09T05:17:54;101284.55;;;30.16;14.68
72794;BME280;63436;26.334;50.194;2022-11-09T05:20:19;101286.97;;;30.18;14.76
72794;BME280;63436;26.334;50.194;2022-11-09T05:22:49;101287.21;;;28.57;15.53
72794;BME280;63436;26.334;50.194;2022-11-09T05:25:09;101287.45;;;30.48;14.32
72794;BME280;63436;26.334;50.194;2022-11-09T05:27:35;101283.80;;;29.93;14.77
72794;BME280;63436;26.334;50.194;2022-11-09T05:30:00;101289.46;;;30.14;14.73
72794;BME280;63436;26.334;50.194;2022-11-09T05:32:25;101287.46;;;29.88;14.79
72794;BME280;63436;26.334;50.194;2022-11-09T05:34:50;101291.44;;;30.01;14.21
72794;BME280;63436;26.334;50.194;2022-11-09T05:37:15;101286.45;;;29.70;14.97
72794;BME280;63436;26.334;50.194;2022-11-09T05:39:41;101293.12;;;30.76;14.73
72794;BME280;63436;26.334;50.194;2022-11-09T05:42:07;101294.94;;;29.19;14.91
72794;BME280;63436;26.334;50.194;2022-11-09T05:44:32;101294.21;;;29.80;14.07
72794;BME280;63436;26.334;50.194;2022-11-09T05:46:57;101300.97;;;30.61;14.07
72794;BME280;63436;26.334;50.194;2022-11-09T05:49:22;101299.38;;;30.10;14.10
72794;BME280;63436;26.334;50.194;2022-11-09T05:51:47;101299.51;;;29.71;14.54
72794;BME280;63436;26.334;50.194;2022-11-09T05:54:13;101301.28;;;31.48;14.11
72794;BME280;63436;26.334;50.194;2022-11-09T05:56:38;101306.39;;;31.30;13.24
72794;BME280;63436;26.334;50.194;2022-11-09T05:59:06;101304.60;;;31.13;13.49
72794;BME280;63436;26.334;50.194;2022-11-09T06:01:37;101302.24;;;31.67;12.64
72794;BME280;63436;26.334;50.194;2022-11-09T06:04:00;101308.84;;;31.61;12.35
72794;BME280;63436;26.334;50.194;2022-11-09T06:06:25;101305.36;;;30.60;12.68
72794;BME280;63436;26.334;50.194;2022-11-09T06:08:45;101307.51;;;30.51;13.87
72794;BME280;63436;26.334;50.194;2022-11-09T06:11:12;101301.16;;;32.35;12.09
72794;BME280;63436;26.334;50.194;2022-11-09T06:13:37;101310.56;;;30.75;13.14
72794;BME280;63436;26.334;50.194;2022-11-09T06:16:03;101311.61;;;31.51;12.06
72794;BME280;63436;26.334;50.194;2022-11-09T06:18:29;101314.32;;;31.88;11.73
72794;BME280;63436;26.334;50.194;2022-11-09T06:20:54;101312.80;;;32.23;11.57
72794;BME280;63436;26.334;50.194;2022-11-09T06:23:19;101322.11;;;31.64;11.66
72794;BME280;63436;26.334;50.194;2022-11-09T06:25:43;101326.64;;;31.92;12.22
72794;BME280;63436;26.334;50.194;2022-11-09T06:28:14;101324.91;;;32.12;12.06
72794;BME280;63436;26.334;50.194;2022-11-09T06:30:34;101331.91;;;32.02;11.98
72794;BME280;63436;26.334;50.194;2022-11-09T06:33:00;101334.03;;;32.05;11.80
72794;BME280;63436;26.334;50.194;2022-11-09T06:35:25;101333.97;;;30.87;12.93
72794;BME280;63436;26.334;50.194;2022-11-09T06:38:00;101327.59;;;32.51;11.79
72794;BME280;63436;26.334;50.194;2022-11-09T06:40:16;101321.04;;;32.15;12.01
72794;BME280;63436;26.334;50.194;2022-11-09T06:42:41;101322.12;;;32.50;12.13
72794;BME280;63436;26.334;50.194;2022-11-09T06:45:08;101325.52;;;33.11;11.68
72794;BME280;63436;26.334;50.194;2022-11-09T06:47:32;101323.17;;;33.04;11.40
72794;BME280;63436;26.334;50.194;2022-11-09T06:49:57;101316.39;;;32.41;11.63
72794;BME280;63436;26.334;50.194;2022-11-09T06:52:22;101312.58;;;32.91;12.17
72794;BME280;63436;26.334;50.194;2022-11-09T06:54:48;101310.90;;;31.48;12.86
72794;BME280;63436;26.334;50.194;2022-11-09T06:57:14;101307.85;;;33.40;11.75
72794;BME280;63436;26.334;50.194;2022-11-09T06:59:39;101316.83;;;33.21;11.83
72794;BME280;63436;26.334;50.194;2022-11-09T07:02:04;101309.61;;;33.06;11.67
72794;BME280;63436;26.334;50.194;2022-11-09T07:04:30;101308.15;;;33.78;12.43
72794;BME280;63436;26.334;50.194;2022-11-09T07:06:55;101312.08;;;33.33;12.27
72794;BME280;63436;26.334;50.194;2022-11-09T07:09:21;101308.45;;;33.63;11.86
72794;BME280;63436;26.334;50.194;2022-11-09T07:11:48;101302.96;;;33.94;12.05
72794;BME280;63436;26.334;50.194;2022-11-09T07:14:12;101307.64;;;33.65;12.21
72794;BME280;63436;26.334;50.194;2022-11-09T07:16:36;101304.26;;;33.37;12.32
72794;BME280;63436;26.334;50.194;2022-11-09T07:19:01;101301.62;;;33.75;12.22
72794;BME280;63436;26.334;50.194;2022-11-09T07:21:28;101300.99;;;33.52;12.61
72794;BME280;63436;26.334;50.194;2022-11-09T07:23:54;101294.65;;;34.41;12.14
72794;BME280;63436;26.334;50.194;2022-11-09T07:26:23;101293.12;;;34.51;12.03
72794;BME280;63436;26.334;50.194;2022-11-09T07:28:45;101291.88;;;34.25;12.09
72794;BME280;63436;26.334;50.194;2022-11-09T07:31:14;101287.73;;;34.51;11.64
72794;BME280;63436;26.334;50.194;2022-11-09T07:33:34;101291.07;;;34.00;11.93
72794;BME280;63436;26.334;50.194;2022-11-09T07:35:59;101291.11;;;34.70;11.62
72794;BME280;63436;26.334;50.194;2022-11-09T07:38:24;101283.38;;;34.40;11.73
72794;BME280;63436;26.334;50.194;2022-11-09T07:40:49;101290.57;;;35.11;11.34
72794;BME280;63436;26.334;50.194;2022-11-09T07:43:19;101283.84;;;34.97;11.57
72794;BME280;63436;26.334;50.194;2022-11-09T07:45:40;101284.03;;;34.86;12.25
72794;BME280;63436;26.334;50.194;2022-11-09T07:48:07;101281.65;;;34.88;11.91
72794;BME280;63436;26.334;50.194;2022-11-09T07:50:30;101278.64;;;34.64;12.33
72794;BME280;63436;26.334;50.194;2022-11-09T07:52:56;101276.68;;;35.54;11.83
72794;BME280;63436;26.334;50.194;2022-11-09T07:55:21;101275.09;;;35.03;12.36
72794;BME280;63436;26.334;50.194;2022-11-09T07:57:46;101270.37;;;33.77;13.48
72794;BME280;63436;26.334;50.194;2022-11-09T08:00:12;101267.76;;;34.00;13.65
72794;BME280;63436;26.334;50.194;2022-11-09T08:02:37;101263.16;;;34.08;13.89
72794;BME280;63436;26.334;50.194;2022-11-09T08:05:02;101263.48;;;34.13;14.54
72794;BME280;63436;26.334;50.194;2022-11-09T08:07:27;101257.80;;;34.46;14.92
72794;BME280;63436;26.334;50.194;2022-11-09T08:09:53;101262.05;;;34.74;15.14
72794;BME280;63436;26.334;50.194;2022-11-09T08:12:19;101256.27;;;34.85;15.36
72794;BME280;63436;26.334;50.194;2022-11-09T08:14:44;101251.40;;;34.32;16.16
72794;BME280;63436;26.334;50.194;2022-11-09T08:17:09;101243.85;;;34.30;16.89
72794;BME280;63436;26.334;50.194;2022-11-09T08:19:35;101243.46;;;34.83;16.48
72794;BME280;63436;26.334;50.194;2022-11-09T08:22:00;101235.32;;;35.25;15.98
72794;BME280;63436;26.334;50.194;2022-11-09T08:24:25;101236.45;;;35.11;16.09
72794;BME280;63436;26.334;50.194;2022-11-09T08:26:51;101230.13;;;35.30;16.33
72794;BME280;63436;26.334;50.194;2022-11-09T08:29:17;101229.36;;;35.10;16.75
72794;BME280;63436;26.334;50.194;2022-11-09T08:31:42;101225.30;;;34.43;18.05
72794;BME280;63436;26.334;50.194;2022-11-09T08:34:10;101221.93;;;34.64;18.26
72794;BME280;63436;26.334;50.194;2022-11-09T08:36:33;101217.52;;;34.63;18.19
72794;BME280;63436;26.334;50.194;2022-11-09T08:38:59;101215.84;;;35.07;18.18
72794;BME280;63436;26.334;50.194;2022-11-09T08:41:24;101213.00;;;35.46;17.93
72794;BME280;63436;26.334;50.194;2022-11-09T08:43:50;101211.18;;;35.23;18.85
72794;BME280;63436;26.334;50.194;2022-11-09T08:46:16;101207.86;;;35.05;19.04
72794;BME280;63436;26.334;50.194;2022-11-09T08:48:41;101205.72;;;35.15;19.25
72794;BME280;63436;26.334;50.194;2022-11-09T08:51:07;101198.63;;;35.20;19.27
72794;BME280;63436;26.334;50.194;2022-11-09T08:53:32;101202.16;;;34.63;19.71
72794;BME280;63436;26.334;50.194;2022-11-09T08:55:58;101198.53;;;35.43;19.39
72794;BME280;63436;26.334;50.194;2022-11-09T08:58:23;101190.20;;;34.27;20.47
72794;BME280;63436;26.334;50.194;2022-11-09T09:00:49;101188.33;;;35.23;19.83
72794;BME280;63436;26.334;50.194;2022-11-09T09:03:13;101183.67;;;35.70;19.33
72794;BME280;63436;26.334;50.194;2022-11-09T09:05:39;101184.23;;;34.61;20.17
72794;BME280;63436;26.334;50.194;2022-11-09T09:08:05;101175.58;;;35.64;19.71
72794;BME280;63436;26.334;50.194;2022-11-09T09:10:29;101170.31;;;35.56;19.51
72794;BME280;63436;26.334;50.194;2022-11-09T09:12:55;101168.56;;;36.00;19.68
72794;BME280;63436;26.334;50.194;2022-11-09T09:15:20;101165.12;;;35.34;20.47
72794;BME280;63436;26.334;50.194;2022-11-09T09:17:46;101164.41;;;35.62;19.59
72794;BME280;63436;26.334;50.194;2022-11-09T09:20:11;101158.08;;;36.22;18.97
72794;BME280;63436;26.334;50.194;2022-11-09T09:22:36;101157.98;;;35.49;18.84
72794;BME280;63436;26.334;50.194;2022-11-09T09:25:01;101152.92;;;35.47;18.94
72794;BME280;63436;26.334;50.194;2022-11-09T09:27:26;101150.00;;;35.91;18.80
72794;BME280;63436;26.334;50.194;2022-11-09T09:29:51;101146.56;;;35.13;19.32
72794;BME280;63436;26.334;50.194;2022-11-09T09:32:17;101151.32;;;34.37;19.72
72794;BME280;63436;26.334;50.194;2022-11-09T09:34:42;101142.21;;;35.31;19.60
72794;BME280;63436;26.334;50.194;2022-11-09T09:37:08;101137.80;;;34.99;20.30
72794;BME280;63436;26.334;50.194;2022-11-09T09:39:33;101131.96;;;35.05;20.76
72794;BME280;63436;26.334;50.194;2022-11-09T09:42:00;101133.08;;;35.63;19.89
72794;BME280;63436;26.334;50.194;2022-11-09T09:44:29;101136.59;;;35.04;19.74
72794;BME280;63436;26.334;50.194;2022-11-09T09:46:54;101131.87;;;35.64;19.19
72794;BME280;63436;26.334;50.194;2022-11-09T09:49:17;101132.49;;;35.11;20.01
72794;BME280;63436;26.334;50.194;2022-11-09T09:51:41;101132.84;;;35.43;19.86
72794;BME280;63436;26.334;50.194;2022-11-09T09:54:11;101127.37;;;36.20;19.74
72794;BME280;63436;26.334;50.194;2022-11-09T09:56:37;101134.12;;;34.79;21.38
72794;BME280;63436;26.334;50.194;2022-11-09T09:58:59;101130.54;;;35.12;19.67
72794;BME280;63436;26.334;50.194;2022-11-09T10:01:26;101133.17;;;35.10;20.58
72794;BME280;63436;26.334;50.194;2022-11-09T10:03:48;101130.97;;;34.76;19.94
72794;BME280;63436;26.334;50.194;2022-11-09T10:08:46;101119.75;;;35.98;17.90
72794;BME280;63436;26.334;50.194;2022-11-09T10:11:13;101120.17;;;35.38;17.45
72794;BME280;63436;26.334;50.194;2022-11-09T10:13:38;101113.81;;;36.05;16.07
72794;BME280;63436;26.334;50.194;2022-11-09T10:16:02;101108.23;;;35.69;16.89
72794;BME280;63436;26.334;50.194;2022-11-09T10:18:43;101105.49;;;35.21;15.80
72794;BME280;63436;26.334;50.194;2022-11-09T10:21:02;101107.50;;;36.38;15.46
72794;BME280;63436;26.334;50.194;2022-11-09T10:23:21;101104.40;;;36.17;15.47
72794;BME280;63436;26.334;50.194;2022-11-09T10:25:53;101105.79;;;36.03;14.91
72794;BME280;63436;26.334;50.194;2022-11-09T10:28:06;101108.00;;;35.32;15.60
72794;BME280;63436;26.334;50.194;2022-11-09T10:30:28;101102.29;;;35.66;16.20
72794;BME280;63436;26.334;50.194;2022-11-09T10:33:07;101097.41;;;36.18;14.84
72794;BME280;63436;26.334;50.194;2022-11-09T10:35:21;101100.65;;;35.59;15.29
72794;BME280;63436;26.334;50.194;2022-11-09T10:37:50;101090.55;;;35.63;16.28
72794;BME280;63436;26.334;50.194;2022-11-09T10:40:15;101094.87;;;35.74;15.15
72794;BME280;63436;26.334;50.194;2022-11-09T10:42:44;101084.09;;;35.13;14.74
72794;BME280;63436;26.334;50.194;2022-11-09T10:47:25;101077.45;;;35.89;15.21
72794;BME280;63436;26.334;50.194;2022-11-09T10:52:29;101073.47;;;36.82;14.79
72794;BME280;63436;26.334;50.194;2022-11-09T10:54:41;101068.74;;;36.19;14.81
72794;BME280;63436;26.334;50.194;2022-11-09T10:57:14;101070.95;;;36.57;14.53
72794;BME280;63436;26.334;50.194;2022-11-09T10:59:39;101075.60;;;34.82;14.64
72794;BME280;63436;26.334;50.194;2022-11-09T11:01:57;101070.77;;;35.51;14.11
72794;BME280;63436;26.334;50.194;2022-11-09T11:04:24;101078.86;;;36.04;13.49
72794;BME280;63436;26.334;50.194;2022-11-09T11:06:48;101076.83;;;36.12;13.39
72794;BME280;63436;26.334;50.194;2022-11-09T11:09:15;101077.37;;;35.59;13.54
72794;BME280;63436;26.334;50.194;2022-11-09T11:11:39;101074.41;;;35.68;13.61
72794;BME280;63436;26.334;50.194;2022-11-09T11:14:12;101071.19;;;36.16;14.79
72794;BME280;63436;26.334;50.194;2022-11-09T11:16:33;101065.87;;;36.06;13.89
72794;BME280;63436;26.334;50.194;2022-11-09T11:18:55;101061.75;;;36.73;12.99
72794;BME280;63436;26.334;50.194;2022-11-09T11:21:22;101062.17;;;35.40;15.27
72794;BME280;63436;26.334;50.194;2022-11-09T11:24:04;101058.94;;;34.81;14.45
72794;BME280;63436;26.334;50.194;2022-11-09T11:26:22;101058.03;;;36.19;12.23
72794;BME280;63436;26.334;50.194;2022-11-09T11:28:41;101061.08;;;35.64;12.49
72794;BME280;63436;26.334;50.194;2022-11-09T11:31:02;101056.34;;;35.88;12.32
72794;BME280;63436;26.334;50.194;2022-11-09T11:33:32;101057.47;;;34.46;13.31
72794;BME280;63436;26.334;50.194;2022-11-09T11:35:55;101061.65;;;33.72;13.35
72794;BME280;63436;26.334;50.194;2022-11-09T11:38:24;101055.62;;;34.92;13.67
72794;BME280;63436;26.334;50.194;2022-11-09T11:40:49;101059.79;;;33.77;14.20
72794;BME280;63436;26.334;50.194;2022-11-09T11:43:20;101052.59;;;35.12;12.93
72794;BME280;63436;26.334;50.194;2022-11-09T11:45:38;101055.32;;;33.91;13.33
72794;BME280;63436;26.334;50.194;2022-11-09T11:48:17;101050.06;;;35.41;13.01
72794;BME280;63436;26.334;50.194;2022-11-09T11:50:32;101049.09;;;35.74;12.10
72794;BME280;63436;26.334;50.194;2022-11-09T11:53:03;101050.77;;;35.01;13.17
72794;BME280;63436;26.334;50.194;2022-11-09T11:55:26;101048.56;;;35.54;12.25
72794;BME280;63436;26.334;50.194;2022-11-09T11:57:51;101046.06;;;35.25;12.62
72794;BME280;63436;26.334;50.194;2022-11-09T12:00:11;101045.67;;;35.43;11.91
72794;BME280;63436;26.334;50.194;2022-11-09T12:07:32;101045.56;;;35.70;12.51
72794;BME280;63436;26.334;50.194;2022-11-09T12:10:01;101044.69;;;36.07;11.95
72794;BME280;63436;26.334;50.194;2022-11-09T12:12:22;101044.44;;;35.31;12.43
72794;BME280;63436;26.334;50.194;2022-11-09T12:14:46;101045.76;;;35.23;12.58
72794;BME280;63436;26.334;50.194;2022-11-09T12:17:09;101043.29;;;34.69;12.66
72794;BME280;63436;26.334;50.194;2022-11-09T12:19:37;101041.30;;;36.10;11.94
72794;BME280;63436;26.334;50.194;2022-11-09T12:22:01;101037.86;;;35.96;11.83
72794;BME280;63436;26.334;50.194;2022-11-09T12:24:27;101040.70;;;35.35;11.44
72794;BME280;63436;26.334;50.194;2022-11-09T12:26:57;101043.55;;;34.64;10.89
72794;BME280;63436;26.334;50.194;2022-11-09T12:29:18;101043.29;;;34.41;10.68
72794;BME280;63436;26.334;50.194;2022-11-09T12:31:45;101043.63;;;35.74;10.13
72794;BME280;63436;26.334;50.194;2022-11-09T12:34:06;101039.28;;;34.35;10.96
72794;BME280;63436;26.334;50.194;2022-11-09T12:36:32;101039.36;;;35.08;10.51
72794;BME280;63436;26.334;50.194;2022-11-09T12:38:59;101045.69;;;34.68;10.07
72794;BME280;63436;26.334;50.194;2022-11-09T12:41:22;101043.65;;;35.10;10.39